sensor_id;sensor_type;location;lat;lon;timestamp;pressure;altitude;pressure_sealevel;temperature;humidity
25420;BME280;13354;48.174;11.566;2024-03-08T00:02:24;95597.84;;;2.48;79.35
25420;BME280;13354;48.174;11.566;2024-03-08T00:04:50;95601.13;;;2.50;79.31
25420;BME280;13354;48.174;11.566;2024-03-08T00:07:15;95606.94;;;2.44;79.78
25420;BME280;13354;48.174;11.566;2024-03-08T00:09:40;95596.50;;;2.44;80.36
25420;BME280;13354;48.174;11.566;2024-03-08T00:12:06;95598.50;;;2.50;79.99
25420;BME280;13354;48.174;11.566;2024-03-08T00:14:31;95599.38;;;2.41;79.96
25420;BME280;13354;48.174;11.566;2024-03-08T00:16:57;95597.16;;;2.46;79.60
25420;BME280;13354;48.174;11.566;2024-03-08T00:19:22;95593.97;;;2.52;79.15
25420;BME280;13354;48.174;11.566;2024-03-08T00:21:48;95597.69;;;2.50;79.14
25420;BME280;13354;48.174;11.566;2024-03-08T00:24:13;95596.78;;;2.41;79.51
25420;BME280;13354;48.174;11.566;2024-03-08T00:26:39;95590.31;;;2.35;80.06
25420;BME280;13354;48.174;11.566;2024-03-08T00:29:04;95595.41;;;2.37;80.05
25420;BME280;13354;48.174;11.566;2024-03-08T00:31:30;95592.81;;;2.37;80.00
25420;BME280;13354;48.174;11.566;2024-03-08T00:33:56;95589.84;;;2.50;79.69
25420;BME280;13354;48.174;11.566;2024-03-08T00:36:22;95587.88;;;2.24;79.84
25420;BME280;13354;48.174;11.566;2024-03-08T00:38:48;95591.34;;;2.25;80.21
25420;BME280;13354;48.174;11.566;2024-03-08T00:41:13;95585.28;;;2.24;80.56
25420;BME280;13354;48.174;11.566;2024-03-08T00:43:38;95582.28;;;2.19;80.61
25420;BME280;13354;48.174;11.566;2024-03-08T00:46:04;95568.84;;;2.14;81.18
25420;BME280;13354;48.174;11.566;2024-03-08T00:48:29;95568.88;;;2.32;81.19
25420;BME280;13354;48.174;11.566;2024-03-08T00:50:56;95568.94;;;2.22;80.53
25420;BME280;13354;48.174;11.566;2024-03-08T00:53:22;95560.81;;;2.25;80.92
25420;BME280;13354;48.174;11.566;2024-03-08T00:55:47;95563.84;;;2.21;80.59
25420;BME280;13354;48.174;11.566;2024-03-08T00:58:13;95555.34;;;2.18;81.22
25420;BME280;13354;48.174;11.566;2024-03-08T01:00:39;95562.75;;;2.23;80.84
25420;BME280;13354;48.174;11.566;2024-03-08T01:03:05;95554.66;;;2.16;80.96
25420;BME280;13354;48.174;11.566;2024-03-08T01:05:30;95549.13;;;2.20;80.74
25420;BME280;13354;48.174;11.566;2024-03-08T01:07:56;95539.47;;;2.30;80.69
25420;BME280;13354;48.174;11.566;2024-03-08T01:10:21;95540.19;;;2.22;81.11
25420;BME280;13354;48.174;11.566;2024-03-08T01:12:47;95537.50;;;2.14;80.80
25420;BME280;13354;48.174;11.566;2024-03-08T01:15:12;95532.13;;;2.15;80.87
25420;BME280;13354;48.174;11.566;2024-03-08T01:17:37;95531.38;;;2.23;80.88
25420;BME280;13354;48.174;11.566;2024-03-08T01:20:04;95533.47;;;2.20;80.99
25420;BME280;13354;48.174;11.566;2024-03-08T01:22:30;95534.03;;;2.13;80.80
25420;BME280;13354;48.174;11.566;2024-03-08T01:24:56;95528.59;;;2.07;80.90
25420;BME280;13354;48.174;11.566;2024-03-08T01:27:21;95532.13;;;2.06;81.55
25420;BME280;13354;48.174;11.566;2024-03-08T01:29:47;95529.69;;;2.04;81.81
25420;BME280;13354;48.174;11.566;2024-03-08T01:32:13;95527.69;;;1.88;82.11
25420;BME280;13354;48.174;11.566;2024-03-08T01:34:38;95523.50;;;2.05;81.89
25420;BME280;13354;48.174;11.566;2024-03-08T01:37:04;95521.88;;;1.94;81.88
25420;BME280;13354;48.174;11.566;2024-03-08T01:39:29;95518.72;;;1.91;82.37
25420;BME280;13354;48.174;11.566;2024-03-08T01:41:55;95516.81;;;1.93;82.37
25420;BME280;13354;48.174;11.566;2024-03-08T01:44:20;95514.63;;;1.88;82.45
25420;BME280;13354;48.174;11.566;2024-03-08T01:46:47;95511.88;;;1.90;82.65
25420;BME280;13354;48.174;11.566;2024-03-08T01:49:13;95512.41;;;1.93;82.34
25420;BME280;13354;48.174;11.566;2024-03-08T01:51:40;95502.66;;;1.96;82.35
25420;BME280;13354;48.174;11.566;2024-03-08T01:54:07;95496.72;;;2.03;82.20
25420;BME280;13354;48.174;11.566;2024-03-08T01:56:36;95490.97;;;2.00;82.32
25420;BME280;13354;48.174;11.566;2024-03-08T01:59:03;95485.28;;;2.04;81.99
25420;BME280;13354;48.174;11.566;2024-03-08T02:01:29;95479.53;;;2.01;82.45
25420;BME280;13354;48.174;11.566;2024-03-08T02:03:54;95471.44;;;1.94;81.90
25420;BME280;13354;48.174;11.566;2024-03-08T02:06:19;95474.59;;;1.98;82.07
25420;BME280;13354;48.174;11.566;2024-03-08T02:08:45;95464.97;;;1.98;82.17
25420;BME280;13354;48.174;11.566;2024-03-08T02:11:11;95468.59;;;1.87;82.59
25420;BME280;13354;48.174;11.566;2024-03-08T02:13:37;95466.81;;;1.88;82.68
25420;BME280;13354;48.174;11.566;2024-03-08T02:16:03;95468.84;;;1.94;82.37
25420;BME280;13354;48.174;11.566;2024-03-08T02:18:30;95467.09;;;1.85;82.70
25420;BME280;13354;48.174;11.566;2024-03-08T02:20:57;95468.75;;;1.86;83.05
25420;BME280;13354;48.174;11.566;2024-03-08T02:23:23;95464.63;;;1.83;83.06
25420;BME280;13354;48.174;11.566;2024-03-08T02:25:50;95465.63;;;1.73;83.56
25420;BME280;13354;48.174;11.566;2024-03-08T02:28:16;95467.84;;;1.67;83.81
25420;BME280;13354;48.174;11.566;2024-03-08T02:30:44;95466.88;;;1.68;83.94
25420;BME280;13354;48.174;11.566;2024-03-08T02:33:14;95461.34;;;1.81;83.92
25420;BME280;13354;48.174;11.566;2024-03-08T02:35:46;95457.13;;;1.71;84.34
25420;BME280;13354;48.174;11.566;2024-03-08T02:38:13;95458.38;;;1.66;84.48
25420;BME280;13354;48.174;11.566;2024-03-08T02:40:44;95461.72;;;1.86;84.25
25420;BME280;13354;48.174;11.566;2024-03-08T02:43:11;95453.94;;;1.77;84.08
25420;BME280;13354;48.174;11.566;2024-03-08T02:45:36;95449.69;;;1.76;84.63
25420;BME280;13354;48.174;11.566;2024-03-08T02:48:02;95451.63;;;1.74;84.35
25420;BME280;13354;48.174;11.566;2024-03-08T02:50:28;95454.09;;;1.65;84.77
25420;BME280;13354;48.174;11.566;2024-03-08T02:52:53;95452.00;;;1.79;84.70
25420;BME280;13354;48.174;11.566;2024-03-08T02:55:19;95455.78;;;1.57;85.35
25420;BME280;13354;48.174;11.566;2024-03-08T02:57:45;95448.94;;;1.56;85.47
25420;BME280;13354;48.174;11.566;2024-03-08T03:00:13;95442.75;;;1.57;85.72
25420;BME280;13354;48.174;11.566;2024-03-08T03:02:38;95449.59;;;1.58;85.89
25420;BME280;13354;48.174;11.566;2024-03-08T03:05:05;95448.34;;;1.62;85.44
25420;BME280;13354;48.174;11.566;2024-03-08T03:07:35;95442.47;;;1.60;85.27
25420;BME280;13354;48.174;11.566;2024-03-08T03:10:01;95444.66;;;1.64;85.26
25420;BME280;13354;48.174;11.566;2024-03-08T03:12:27;95442.34;;;1.52;85.87
25420;BME280;13354;48.174;11.566;2024-03-08T03:14:53;95445.19;;;1.58;85.74
25420;BME280;13354;48.174;11.566;2024-03-08T03:17:18;95441.22;;;1.54;85.96
25420;BME280;13354;48.174;11.566;2024-03-08T03:19:45;95443.34;;;1.41;86.31
25420;BME280;13354;48.174;11.566;2024-03-08T03:22:12;95440.59;;;1.42;86.35
25420;BME280;13354;48.174;11.566;2024-03-08T03:24:37;95433.47;;;1.35;87.09
25420;BME280;13354;48.174;11.566;2024-03-08T03:27:04;95435.25;;;1.34;87.21
25420;BME280;13354;48.174;11.566;2024-03-08T03:29:44;95419.72;;;1.42;87.37
25420;BME280;13354;48.174;11.566;2024-03-08T03:32:14;95434.44;;;1.34;87.49
25420;BME280;13354;48.174;11.566;2024-03-08T03:34:40;95430.59;;;1.38;87.21
25420;BME280;13354;48.174;11.566;2024-03-08T03:37:07;95431.94;;;1.42;87.01
25420;BME280;13354;48.174;11.566;2024-03-08T03:39:34;95428.25;;;1.44;86.79
25420;BME280;13354;48.174;11.566;2024-03-08T03:42:00;95439.50;;;1.45;86.52
25420;BME280;13354;48.174;11.566;2024-03-08T03:44:28;95435.66;;;1.39;86.53
25420;BME280;13354;48.174;11.566;2024-03-08T03:46:54;95430.69;;;1.46;86.55
25420;BME280;13354;48.174;11.566;2024-03-08T03:49:20;95423.56;;;1.38;86.75
25420;BME280;13354;48.174;11.566;2024-03-08T03:51:46;95427.16;;;1.37;87.10
25420;BME280;13354;48.174;11.566;2024-03-08T03:54:12;95418.53;;;1.27;87.27
25420;BME280;13354;48.174;11.566;2024-03-08T03:56:38;95422.66;;;1.20;87.72
25420;BME280;13354;48.174;11.566;2024-03-08T03:59:05;95414.00;;;1.29;87.81
25420;BME280;13354;48.174;11.566;2024-03-08T04:01:32;95414.03;;;1.19;88.42
25420;BME280;13354;48.174;11.566;2024-03-08T04:03:57;95416.91;;;1.16;88.48
25420;BME280;13354;48.174;11.566;2024-03-08T04:06:22;95413.84;;;1.40;88.04
25420;BME280;13354;48.174;11.566;2024-03-08T04:08:48;95418.16;;;1.22;88.40
25420;BME280;13354;48.174;11.566;2024-03-08T04:11:14;95412.25;;;1.10;88.87
25420;BME280;13354;48.174;11.566;2024-03-08T04:13:41;95410.31;;;1.12;88.90
25420;BME280;13354;48.174;11.566;2024-03-08T04:16:06;95411.03;;;1.14;89.30
25420;BME280;13354;48.174;11.566;2024-03-08T04:18:34;95417.47;;;1.10;89.43
25420;BME280;13354;48.174;11.566;2024-03-08T04:21:02;95415.00;;;1.09;89.26
25420;BME280;13354;48.174;11.566;2024-03-08T04:23:27;95411.25;;;1.21;88.90
25420;BME280;13354;48.174;11.566;2024-03-08T04:25:54;95406.91;;;1.12;89.04
25420;BME280;13354;48.174;11.566;2024-03-08T04:28:19;95404.56;;;1.18;89.08
25420;BME280;13354;48.174;11.566;2024-03-08T04:30:45;95405.13;;;1.12;89.42
25420;BME280;13354;48.174;11.566;2024-03-08T04:33:11;95406.34;;;1.18;88.88
25420;BME280;13354;48.174;11.566;2024-03-08T04:35:36;95405.81;;;1.14;89.21
25420;BME280;13354;48.174;11.566;2024-03-08T04:38:02;95401.69;;;1.12;89.04
25420;BME280;13354;48.174;11.566;2024-03-08T04:40:30;95399.88;;;1.22;89.28
25420;BME280;13354;48.174;11.566;2024-03-08T04:42:58;95404.28;;;1.12;89.41
25420;BME280;13354;48.174;11.566;2024-03-08T04:45:24;95395.66;;;1.11;88.93
25420;BME280;13354;48.174;11.566;2024-03-08T04:47:51;95399.22;;;1.10;89.51
25420;BME280;13354;48.174;11.566;2024-03-08T04:50:17;95399.34;;;1.18;89.59
25420;BME280;13354;48.174;11.566;2024-03-08T04:52:43;95396.88;;;1.17;89.38
25420;BME280;13354;48.174;11.566;2024-03-08T04:55:08;95400.38;;;1.35;88.77
25420;BME280;13354;48.174;11.566;2024-03-08T04:57:34;95400.72;;;1.13;89.21
25420;BME280;13354;48.174;11.566;2024-03-08T05:00:00;95394.25;;;1.17;89.24
25420;BME280;13354;48.174;11.566;2024-03-08T05:02:25;95392.78;;;1.05;89.22
25420;BME280;13354;48.174;11.566;2024-03-08T05:04:51;95393.88;;;1.12;89.49
25420;BME280;13354;48.174;11.566;2024-03-08T05:07:16;95400.59;;;1.05;89.74
25420;BME280;13354;48.174;11.566;2024-03-08T05:09:42;95398.38;;;1.10;89.64
25420;BME280;13354;48.174;11.566;2024-03-08T05:12:07;95391.63;;;1.27;89.15
25420;BME280;13354;48.174;11.566;2024-03-08T05:14:33;95387.94;;;1.19;89.57
25420;BME280;13354;48.174;11.566;2024-03-08T05:17:00;95398.13;;;1.13;89.21
25420;BME280;13354;48.174;11.566;2024-03-08T05:19:26;95398.44;;;1.00;89.99
25420;BME280;13354;48.174;11.566;2024-03-08T05:21:51;95403.06;;;1.06;89.79
25420;BME280;13354;48.174;11.566;2024-03-08T05:24:17;95403.88;;;1.07;90.27
25420;BME280;13354;48.174;11.566;2024-03-08T05:26:43;95385.78;;;1.15;90.09
25420;BME280;13354;48.174;11.566;2024-03-08T05:29:08;95384.25;;;1.22;90.14
25420;BME280;13354;48.174;11.566;2024-03-08T05:31:54;95386.88;;;1.12;90.13
25420;BME280;13354;48.174;11.566;2024-03-08T05:34:20;95384.25;;;1.22;90.17
25420;BME280;13354;48.174;11.566;2024-03-08T05:36:47;95383.56;;;1.20;89.60
25420;BME280;13354;48.174;11.566;2024-03-08T05:39:15;95378.59;;;1.27;89.34
25420;BME280;13354;48.174;11.566;2024-03-08T05:41:41;95378.69;;;1.35;88.94
25420;BME280;13354;48.174;11.566;2024-03-08T05:44:06;95383.94;;;1.25;89.18
25420;BME280;13354;48.174;11.566;2024-03-08T05:46:33;95380.09;;;1.29;88.75
25420;BME280;13354;48.174;11.566;2024-03-08T05:48:59;95380.41;;;1.16;89.22
25420;BME280;13354;48.174;11.566;2024-03-08T05:51:25;95379.03;;;1.12;89.86
25420;BME280;13354;48.174;11.566;2024-03-08T05:53:53;95374.34;;;1.26;89.84
25420;BME280;13354;48.174;11.566;2024-03-08T05:56:19;95379.13;;;1.30;89.83
25420;BME280;13354;48.174;11.566;2024-03-08T05:58:44;95382.00;;;1.37;89.32
25420;BME280;13354;48.174;11.566;2024-03-08T06:01:11;95373.50;;;1.25;89.53
25420;BME280;13354;48.174;11.566;2024-03-08T06:03:38;95374.47;;;1.24;89.60
25420;BME280;13354;48.174;11.566;2024-03-08T06:06:12;95373.56;;;1.15;90.03
25420;BME280;13354;48.174;11.566;2024-03-08T06:08:37;95375.47;;;1.13;90.59
25420;BME280;13354;48.174;11.566;2024-03-08T06:11:03;95369.59;;;1.11;90.60
25420;BME280;13354;48.174;11.566;2024-03-08T06:13:28;95378.06;;;1.23;90.93
25420;BME280;13354;48.174;11.566;2024-03-08T06:15:56;95366.66;;;1.24;90.33
25420;BME280;13354;48.174;11.566;2024-03-08T06:18:22;95368.44;;;1.33;90.07
25420;BME280;13354;48.174;11.566;2024-03-08T06:20:47;95373.88;;;1.40;89.96
25420;BME280;13354;48.174;11.566;2024-03-08T06:23:12;95368.44;;;1.33;89.84
25420;BME280;13354;48.174;11.566;2024-03-08T06:25:43;95371.31;;;1.30;89.90
25420;BME280;13354;48.174;11.566;2024-03-08T06:28:08;95368.66;;;1.40;89.99
25420;BME280;13354;48.174;11.566;2024-03-08T06:30:34;95374.56;;;1.42;89.16
25420;BME280;13354;48.174;11.566;2024-03-08T06:33:00;95371.03;;;1.33;88.45
25420;BME280;13354;48.174;11.566;2024-03-08T06:35:25;95374.94;;;1.47;88.18
25420;BME280;13354;48.174;11.566;2024-03-08T06:37:51;95368.59;;;1.59;88.10
25420;BME280;13354;48.174;11.566;2024-03-08T06:40:16;95376.50;;;1.67;88.01
25420;BME280;13354;48.174;11.566;2024-03-08T06:42:42;95374.34;;;1.63;87.73
25420;BME280;13354;48.174;11.566;2024-03-08T06:45:08;95371.84;;;1.61;87.59
25420;BME280;13354;48.174;11.566;2024-03-08T06:47:35;95373.28;;;1.56;87.27
25420;BME280;13354;48.174;11.566;2024-03-08T06:50:01;95374.47;;;1.61;87.60
25420;BME280;13354;48.174;11.566;2024-03-08T06:52:26;95374.63;;;1.60;87.57
25420;BME280;13354;48.174;11.566;2024-03-08T06:54:52;95379.50;;;1.45;88.11
25420;BME280;13354;48.174;11.566;2024-03-08T06:57:18;95376.44;;;1.50;88.12
25420;BME280;13354;48.174;11.566;2024-03-08T06:59:45;95379.41;;;1.64;87.83
25420;BME280;13354;48.174;11.566;2024-03-08T07:02:11;95382.47;;;1.50;88.09
25420;BME280;13354;48.174;11.566;2024-03-08T07:04:36;95373.81;;;1.59;87.41
25420;BME280;13354;48.174;11.566;2024-03-08T07:07:06;95373.94;;;1.58;87.20
25420;BME280;13354;48.174;11.566;2024-03-08T07:09:35;95376.88;;;1.73;86.57
25420;BME280;13354;48.174;11.566;2024-03-08T07:12:01;95368.97;;;1.64;86.42
25420;BME280;13354;48.174;11.566;2024-03-08T07:14:27;95363.28;;;1.79;86.28
25420;BME280;13354;48.174;11.566;2024-03-08T07:16:52;95372.19;;;1.76;85.96
25420;BME280;13354;48.174;11.566;2024-03-08T07:19:18;95370.28;;;1.78;86.16
25420;BME280;13354;48.174;11.566;2024-03-08T07:21:44;95373.19;;;1.75;85.73
25420;BME280;13354;48.174;11.566;2024-03-08T07:24:10;95364.25;;;1.78;85.49
25420;BME280;13354;48.174;11.566;2024-03-08T07:26:43;95364.66;;;2.01;85.06
25420;BME280;13354;48.174;11.566;2024-03-08T07:29:08;95360.81;;;1.95;84.55
25420;BME280;13354;48.174;11.566;2024-03-08T07:31:33;95367.44;;;1.99;84.64
25420;BME280;13354;48.174;11.566;2024-03-08T07:34:17;95355.78;;;2.11;85.23
25420;BME280;13354;48.174;11.566;2024-03-08T07:36:43;95356.16;;;2.16;85.33
25420;BME280;13354;48.174;11.566;2024-03-08T07:39:08;95356.63;;;2.30;85.07
25420;BME280;13354;48.174;11.566;2024-03-08T07:41:38;95349.84;;;2.37;84.03
25420;BME280;13354;48.174;11.566;2024-03-08T07:44:06;95347.75;;;2.40;83.80
25420;BME280;13354;48.174;11.566;2024-03-08T07:46:31;95348.63;;;2.49;82.90
25420;BME280;13354;48.174;11.566;2024-03-08T07:48:59;95350.94;;;2.52;83.03
25420;BME280;13354;48.174;11.566;2024-03-08T07:51:25;95354.72;;;2.76;82.59
25420;BME280;13354;48.174;11.566;2024-03-08T07:53:50;95353.09;;;2.75;81.43
25420;BME280;13354;48.174;11.566;2024-03-08T07:56:15;95344.19;;;2.85;81.19
25420;BME280;13354;48.174;11.566;2024-03-08T07:58:44;95335.19;;;3.06;81.07
25420;BME280;13354;48.174;11.566;2024-03-08T08:01:18;95336.81;;;3.07;79.67
25420;BME280;13354;48.174;11.566;2024-03-08T08:03:45;95339.22;;;3.00;79.88
25420;BME280;13354;48.174;11.566;2024-03-08T08:06:10;95337.22;;;2.94;79.22
25420;BME280;13354;48.174;11.566;2024-03-08T08:08:41;95334.19;;;3.07;79.50
25420;BME280;13354;48.174;11.566;2024-03-08T08:11:07;95332.03;;;3.28;79.55
25420;BME280;13354;48.174;11.566;2024-03-08T08:13:34;95324.44;;;3.43;79.01
25420;BME280;13354;48.174;11.566;2024-03-08T08:15:59;95322.31;;;3.47;78.43
25420;BME280;13354;48.174;11.566;2024-03-08T08:18:25;95330.31;;;3.45;78.33
25420;BME280;13354;48.174;11.566;2024-03-08T08:23:18;95333.31;;;3.58;77.52
25420;BME280;13354;48.174;11.566;2024-03-08T08:25:45;95322.56;;;3.61;77.22
25420;BME280;13354;48.174;11.566;2024-03-08T08:28:11;95324.00;;;3.64;75.97
25420;BME280;13354;48.174;11.566;2024-03-08T08:30:38;95325.00;;;3.63;76.41
25420;BME280;13354;48.174;11.566;2024-03-08T08:33:03;95320.09;;;3.68;76.67
25420;BME280;13354;48.174;11.566;2024-03-08T08:35:31;95308.38;;;3.80;76.40
25420;BME280;13354;48.174;11.566;2024-03-08T08:37:56;95314.75;;;3.78;76.31
25420;BME280;13354;48.174;11.566;2024-03-08T08:40:24;95314.75;;;3.86;75.81
25420;BME280;13354;48.174;11.566;2024-03-08T08:42:51;95305.28;;;3.85;75.96
25420;BME280;13354;48.174;11.566;2024-03-08T08:45:18;95302.44;;;3.70;75.44
25420;BME280;13354;48.174;11.566;2024-03-08T08:47:44;95309.56;;;3.94;75.86
25420;BME280;13354;48.174;11.566;2024-03-08T08:50:10;95298.28;;;4.02;76.23
25420;BME280;13354;48.174;11.566;2024-03-08T08:52:39;95301.34;;;3.89;74.74
25420;BME280;13354;48.174;11.566;2024-03-08T08:55:05;95295.31;;;3.97;75.09
25420;BME280;13354;48.174;11.566;2024-03-08T08:57:32;95292.41;;;4.16;76.36
25420;BME280;13354;48.174;11.566;2024-03-08T08:59:58;95287.31;;;4.88;74.76
25420;BME280;13354;48.174;11.566;2024-03-08T09:02:24;95285.41;;;5.38;71.42
25420;BME280;13354;48.174;11.566;2024-03-08T09:04:51;95268.47;;;6.11;68.52
25420;BME280;13354;48.174;11.566;2024-03-08T09:07:16;95277.63;;;6.84;67.96
25420;BME280;13354;48.174;11.566;2024-03-08T09:09:44;95261.84;;;7.58;64.17
25420;BME280;13354;48.174;11.566;2024-03-08T09:12:10;95259.50;;;8.14;61.48
25420;BME280;13354;48.174;11.566;2024-03-08T09:14:41;95263.06;;;7.91;61.84
25420;BME280;13354;48.174;11.566;2024-03-08T09:17:07;95258.63;;;8.71;59.99
25420;BME280;13354;48.174;11.566;2024-03-08T09:19:34;95261.41;;;9.19;58.61
25420;BME280;13354;48.174;11.566;2024-03-08T09:21:59;95253.66;;;9.87;56.60
25420;BME280;13354;48.174;11.566;2024-03-08T09:24:25;95245.06;;;10.33;55.00
25420;BME280;13354;48.174;11.566;2024-03-08T09:26:50;95243.66;;;10.63;53.44
25420;BME280;13354;48.174;11.566;2024-03-08T09:29:17;95243.69;;;10.77;53.21
25420;BME280;13354;48.174;11.566;2024-03-08T09:31:42;95235.50;;;10.78;53.03
25420;BME280;13354;48.174;11.566;2024-03-08T09:34:08;95240.19;;;10.96;52.56
25420;BME280;13354;48.174;11.566;2024-03-08T09:36:34;95245.50;;;10.76;52.62
25420;BME280;13354;48.174;11.566;2024-03-08T09:38:59;95237.31;;;11.18;52.35
25420;BME280;13354;48.174;11.566;2024-03-08T09:41:26;95236.94;;;10.81;52.71
25420;BME280;13354;48.174;11.566;2024-03-08T09:43:51;95244.28;;;10.99;53.65
25420;BME280;13354;48.174;11.566;2024-03-08T09:46:18;95240.38;;;11.21;52.06
25420;BME280;13354;48.174;11.566;2024-03-08T09:48:45;95237.50;;;11.29;52.21
25420;BME280;13354;48.174;11.566;2024-03-08T09:51:12;95226.72;;;11.24;51.51
25420;BME280;13354;48.174;11.566;2024-03-08T09:53:41;95228.16;;;11.20;51.35
25420;BME280;13354;48.174;11.566;2024-03-08T09:56:07;95228.50;;;11.44;51.21
25420;BME280;13354;48.174;11.566;2024-03-08T09:58:33;95235.66;;;11.30;51.12
25420;BME280;13354;48.174;11.566;2024-03-08T10:00:59;95233.41;;;11.33;51.56
25420;BME280;13354;48.174;11.566;2024-03-08T10:03:28;95225.84;;;11.57;51.72
25420;BME280;13354;48.174;11.566;2024-03-08T10:05:56;95223.28;;;11.82;50.81
25420;BME280;13354;48.174;11.566;2024-03-08T10:08:26;95221.03;;;11.85;49.84
25420;BME280;13354;48.174;11.566;2024-03-08T10:10:52;95221.66;;;11.74;50.24
25420;BME280;13354;48.174;11.566;2024-03-08T10:13:17;95219.41;;;11.91;50.39
25420;BME280;13354;48.174;11.566;2024-03-08T10:15:46;95219.00;;;11.88;50.05
25420;BME280;13354;48.174;11.566;2024-03-08T10:18:11;95213.44;;;11.96;49.76
25420;BME280;13354;48.174;11.566;2024-03-08T10:20:37;95208.50;;;12.06;50.24
25420;BME280;13354;48.174;11.566;2024-03-08T10:23:03;95207.31;;;12.02;49.80
25420;BME280;13354;48.174;11.566;2024-03-08T10:25:33;95197.38;;;12.22;49.29
25420;BME280;13354;48.174;11.566;2024-03-08T10:27:59;95197.44;;;12.16;49.14
25420;BME280;13354;48.174;11.566;2024-03-08T10:30:25;95198.16;;;12.29;48.40
25420;BME280;13354;48.174;11.566;2024-03-08T10:32:50;95182.38;;;12.41;49.24
25420;BME280;13354;48.174;11.566;2024-03-08T10:35:17;95189.59;;;12.27;49.43
25420;BME280;13354;48.174;11.566;2024-03-08T10:37:50;95183.69;;;12.57;49.06
25420;BME280;13354;48.174;11.566;2024-03-08T10:40:24;95193.69;;;12.55;48.21
25420;BME280;13354;48.174;11.566;2024-03-08T10:42:59;95191.41;;;12.58;48.21
25420;BME280;13354;48.174;11.566;2024-03-08T10:47:57;95184.28;;;13.27;47.76
25420;BME280;13354;48.174;11.566;2024-03-08T10:50:25;95175.13;;;13.42;46.90
25420;BME280;13354;48.174;11.566;2024-03-08T10:52:52;95180.38;;;13.67;46.04
25420;BME280;13354;48.174;11.566;2024-03-08T10:55:18;95179.56;;;13.66;46.12
25420;BME280;13354;48.174;11.566;2024-03-08T10:57:46;95180.41;;;13.48;44.91
25420;BME280;13354;48.174;11.566;2024-03-08T11:00:12;95171.78;;;13.65;45.85
25420;BME280;13354;48.174;11.566;2024-03-08T11:02:38;95178.75;;;13.66;45.17
25420;BME280;13354;48.174;11.566;2024-03-08T11:05:04;95174.53;;;13.58;45.46
25420;BME280;13354;48.174;11.566;2024-03-08T11:07:34;95181.50;;;13.41;45.46
25420;BME280;13354;48.174;11.566;2024-03-08T11:10:03;95159.66;;;13.87;46.08
25420;BME280;13354;48.174;11.566;2024-03-08T11:12:37;95156.53;;;13.90;45.68
25420;BME280;13354;48.174;11.566;2024-03-08T11:15:10;95156.75;;;14.19;45.89
25420;BME280;13354;48.174;11.566;2024-03-08T11:20:09;95148.41;;;14.57;43.57
25420;BME280;13354;48.174;11.566;2024-03-08T11:22:41;95141.59;;;14.61;43.93
25420;BME280;13354;48.174;11.566;2024-03-08T11:28:07;95133.59;;;14.49;44.30
25420;BME280;13354;48.174;11.566;2024-03-08T11:30:33;95128.28;;;14.85;43.20
25420;BME280;13354;48.174;11.566;2024-03-08T11:33:01;95125.25;;;15.05;43.74
25420;BME280;13354;48.174;11.566;2024-03-08T11:35:28;95131.53;;;14.87;43.21
25420;BME280;13354;48.174;11.566;2024-03-08T11:37:53;95127.69;;;14.71;43.30
25420;BME280;13354;48.174;11.566;2024-03-08T11:40:19;95116.09;;;15.12;43.35
25420;BME280;13354;48.174;11.566;2024-03-08T11:42:46;95108.97;;;15.41;42.77
25420;BME280;13354;48.174;11.566;2024-03-08T11:45:17;95105.47;;;15.53;42.03
25420;BME280;13354;48.174;11.566;2024-03-08T11:47:45;95099.78;;;14.97;42.19
25420;BME280;13354;48.174;11.566;2024-03-08T11:50:14;95119.59;;;14.78;42.49
25420;BME280;13354;48.174;11.566;2024-03-08T11:52:40;95112.53;;;14.71;42.09
25420;BME280;13354;48.174;11.566;2024-03-08T11:55:06;95108.06;;;14.42;43.04
25420;BME280;13354;48.174;11.566;2024-03-08T11:57:32;95117.00;;;14.06;44.16
25420;BME280;13354;48.174;11.566;2024-03-08T11:59:58;95110.63;;;13.95;44.34
25420;BME280;13354;48.174;11.566;2024-03-08T12:02:32;95113.09;;;14.08;44.42
25420;BME280;13354;48.174;11.566;2024-03-08T12:05:00;95095.69;;;13.94;44.32
25420;BME280;13354;48.174;11.566;2024-03-08T12:07:28;95089.63;;;14.17;45.17
25420;BME280;13354;48.174;11.566;2024-03-08T12:12:57;95088.09;;;14.51;44.91
25420;BME280;13354;48.174;11.566;2024-03-08T12:15:28;95081.72;;;14.64;44.93
25420;BME280;13354;48.174;11.566;2024-03-08T12:17:55;95077.31;;;14.81;44.20
25420;BME280;13354;48.174;11.566;2024-03-08T12:20:26;95077.72;;;15.25;43.40
25420;BME280;13354;48.174;11.566;2024-03-08T12:22:53;95072.56;;;15.35;42.14
25420;BME280;13354;48.174;11.566;2024-03-08T12:25:19;95076.00;;;15.07;41.41
25420;BME280;13354;48.174;11.566;2024-03-08T12:27:45;95070.09;;;15.05;42.67
25420;BME280;13354;48.174;11.566;2024-03-08T12:30:24;95061.59;;;15.20;41.22
25420;BME280;13354;48.174;11.566;2024-03-08T12:32:58;95056.25;;;15.20;41.95
25420;BME280;13354;48.174;11.566;2024-03-08T12:35:26;95058.72;;;15.21;42.33
25420;BME280;13354;48.174;11.566;2024-03-08T12:37:56;95047.53;;;14.96;42.21
25420;BME280;13354;48.174;11.566;2024-03-08T12:40:26;95054.28;;;14.63;42.78
25420;BME280;13354;48.174;11.566;2024-03-08T12:42:52;95050.78;;;14.86;42.50
25420;BME280;13354;48.174;11.566;2024-03-08T12:45:18;95038.47;;;14.97;41.85
25420;BME280;13354;48.174;11.566;2024-03-08T12:47:43;95033.41;;;15.24;42.86
25420;BME280;13354;48.174;11.566;2024-03-08T12:50:10;95034.44;;;15.35;41.28
25420;BME280;13354;48.174;11.566;2024-03-08T12:52:36;95030.88;;;15.58;40.94
25420;BME280;13354;48.174;11.566;2024-03-08T12:55:02;95019.22;;;15.64;40.19
25420;BME280;13354;48.174;11.566;2024-03-08T12:57:28;95022.72;;;15.36;39.47
25420;BME280;13354;48.174;11.566;2024-03-08T12:59:53;95014.72;;;15.36;40.13
25420;BME280;13354;48.174;11.566;2024-03-08T13:02:19;95008.88;;;15.51;40.24
25420;BME280;13354;48.174;11.566;2024-03-08T13:04:45;95009.75;;;15.56;40.44
25420;BME280;13354;48.174;11.566;2024-03-08T13:07:11;95004.72;;;15.72;40.55
25420;BME280;13354;48.174;11.566;2024-03-08T13:09:36;95012.59;;;15.78;40.18